Time;durP1;ratioP1;P1;durP2;ratioP2;P2;SDS_P1;SDS_P2;PMS_P1;PMS_P2;Temp;Humidity;BMP_temperature;BMP_pressure;BME280_temperature;BME280_humidity;BME280_pressure;Samples;Min_cycle;Max_cycle;Signal;HPM_P1;HPM_P2
2021/04/28 00:02:16;;;;;;;22.30;9.43;;;;;;;1.78;58.64;99485.75;5097649;28;20040;-51
2021/04/28 00:04:42;;;;;;;24.92;10.75;;;;;;;1.72;59.32;99479.69;5097437;28;20383;-51
2021/04/28 00:07:08;;;;;;;32.40;13.57;;;;;;;1.74;58.72;99485.72;5096444;28;20055;-51
2021/04/28 00:09:34;;;;;;;36.97;15.27;;;;;;;1.71;58.78;99489.16;5097533;28;20166;-51
2021/04/28 00:11:59;;;;;;;38.50;16.90;;;;;;;1.72;58.61;99483.13;5096438;28;20044;-51
2021/04/28 00:14:25;;;;;;;33.10;14.98;;;;;;;1.68;59.35;99483.09;5097155;28;20063;-51
2021/04/28 00:16:51;;;;;;;32.92;13.93;;;;;;;1.70;58.54;99473.66;5096381;28;20051;-51
2021/04/28 00:19:17;;;;;;;26.80;12.13;;;;;;;1.67;58.45;99477.09;5096278;28;20048;-51
2021/04/28 00:21:43;;;;;;;24.05;11.35;;;;;;;1.66;59.11;99471.91;5096012;28;20044;-51
2021/04/28 00:24:11;;;;;;;31.25;12.65;;;;;;;1.59;59.55;99479.63;5096651;28;20066;-51
2021/04/28 00:26:37;;;;;;;35.35;13.57;;;;;;;1.55;59.83;99470.13;5079284;28;20056;-51
2021/04/28 00:29:03;;;;;;;29.58;12.48;;;;;;;1.55;59.44;99466.69;5096102;28;20040;-51
2021/04/28 00:31:30;;;;;;;35.72;11.95;;;;;;;1.48;60.07;99470.09;5097506;28;20032;-51
2021/04/28 00:33:56;;;;;;;20.70;10.98;;;;;;;1.44;60.00;99468.34;5096910;28;20040;-52
2021/04/28 00:36:22;;;;;;;22.90;10.93;;;;;;;1.33;60.73;99463.97;5097077;28;20044;-52
2021/04/28 00:38:48;;;;;;;26.35;10.90;;;;;;;1.31;60.43;99462.25;5095816;28;20052;-51
2021/04/28 00:41:13;;;;;;;22.60;9.63;;;;;;;1.26;60.92;99466.50;5097243;28;20036;-51
2021/04/28 00:43:39;;;;;;;22.55;10.50;;;;;;;1.21;60.42;99445.84;5079135;28;20048;-51
2021/04/28 00:46:06;;;;;;;27.70;11.13;;;;;;;1.26;60.67;99461.34;5062387;28;20440;-51
2021/04/28 00:48:31;;;;;;;20.55;9.18;;;;;;;1.21;60.94;99458.72;5096546;28;20135;-51
2021/04/28 00:50:57;;;;;;;24.83;10.38;;;;;;;1.24;60.32;99461.34;5096875;28;20044;-51
2021/04/28 00:53:24;;;;;;;25.73;11.52;;;;;;;1.22;60.58;99465.59;5096861;28;20113;-52
2021/04/28 00:55:49;;;;;;;24.42;9.73;;;;;;;1.20;60.79;99461.28;5095953;28;20059;-51
2021/04/28 00:58:15;;;;;;;20.58;9.65;;;;;;;1.17;60.59;99457.00;5095883;28;20056;-52
2021/04/28 01:00:42;;;;;;;19.35;10.43;;;;;;;1.08;61.33;99454.34;5095868;28;20047;-51
2021/04/28 01:03:10;;;;;;;23.70;9.68;;;;;;;1.02;62.30;99451.72;5096346;28;20097;-52
2021/04/28 01:05:36;;;;;;;21.23;10.52;;;;;;;1.05;61.90;99452.59;5096625;28;20048;-52
2021/04/28 01:08:02;;;;;;;22.98;9.75;;;;;;;1.01;62.37;99453.44;5096606;28;20349;-52
2021/04/28 01:10:30;;;;;;;23.75;10.70;;;;;;;0.95;62.50;99447.34;5096259;28;20048;-51
2021/04/28 01:12:57;;;;;;;29.48;11.80;;;;;;;0.98;62.47;99444.81;5095704;28;20371;-52
2021/04/28 01:15:26;;;;;;;25.08;9.82;;;;;;;1.02;61.62;99446.56;5096249;28;20044;-52
2021/04/28 01:17:56;;;;;;;24.88;10.43;;;;;;;1.00;61.66;99441.38;5095213;28;20055;-51
2021/04/28 01:20:22;;;;;;;22.08;9.63;;;;;;;0.98;61.94;99439.66;5096247;28;20051;-52
2021/04/28 01:22:48;;;;;;;19.52;9.15;;;;;;;0.95;61.82;99443.06;5096491;28;20109;-52
2021/04/28 01:25:20;;;;;;;21.13;10.05;;;;;;;0.97;61.70;99449.06;5096757;28;20044;-52
2021/04/28 01:27:49;;;;;;;24.38;11.20;;;;;;;0.86;62.02;99430.09;5095291;28;20052;-51
2021/04/28 01:30:15;;;;;;;23.15;10.50;;;;;;;1.01;61.62;99432.78;5095527;28;20048;-52
2021/04/28 01:32:44;;;;;;;20.02;9.40;;;;;;;1.05;61.35;99441.41;5095507;28;20040;-52
2021/04/28 01:35:13;;;;;;;24.05;9.30;;;;;;;1.09;60.93;99435.41;5062329;28;20097;-52
2021/04/28 01:37:39;;;;;;;21.80;9.48;;;;;;;1.02;61.66;99434.50;5062440;28;20063;-52
2021/04/28 01:40:05;;;;;;;19.17;10.13;;;;;;;0.96;61.61;99419.00;5095159;28;20367;-52
2021/04/28 01:42:31;;;;;;;23.83;10.55;;;;;;;1.00;61.79;99432.75;5061899;28;20044;-52
2021/04/28 01:44:57;;;;;;;21.52;9.48;;;;;;;0.95;61.45;99422.44;5061757;28;20355;-52
2021/04/28 01:47:23;;;;;;;25.75;10.10;;;;;;;0.99;61.12;99424.16;5078711;28;20040;-52
2021/04/28 01:49:53;;;;;;;23.00;10.05;;;;;;;1.00;61.20;99419.88;5079652;28;20090;-52
2021/04/28 01:52:18;;;;;;;20.63;9.88;;;;;;;0.98;61.59;99429.34;5078527;28;20147;-52
2021/04/28 01:54:47;;;;;;;20.42;9.25;;;;;;;0.95;61.67;99424.16;5078359;28;20064;-52
2021/04/28 01:57:15;;;;;;;21.20;8.93;;;;;;;0.99;61.04;99420.72;5078792;28;20193;-52
2021/04/28 01:59:56;;;;;;;21.60;10.48;;;;;;;0.83;61.20;99388.81;5095069;28;20356;-52
2021/04/28 02:02:40;;;;;;;17.08;8.88;;;;;;;0.88;61.85;99413.78;5095325;28;20066;-52
2021/04/28 02:05:07;;;;;;;19.45;10.55;;;;;;;0.80;62.37;99415.41;5061918;28;20048;-52
2021/04/28 02:07:34;;;;;;;19.25;9.65;;;;;;;0.86;61.85;99409.47;5095215;28;20398;-52
2021/04/28 02:10:01;;;;;;;26.48;10.05;;;;;;;0.82;62.27;99408.56;5095170;28;20044;-52
2021/04/28 02:12:27;;;;;;;24.33;11.18;;;;;;;0.82;61.81;99405.13;5095147;28;20071;-52
2021/04/28 02:14:57;;;;;;;29.48;11.13;;;;;;;0.71;62.97;99410.19;5078539;28;20051;-51
2021/04/28 02:17:28;;;;;;;24.50;11.30;;;;;;;0.70;62.95;99409.31;5079090;28;20048;-52
2021/04/28 02:19:58;;;;;;;27.55;11.40;;;;;;;0.73;62.72;99407.63;5078521;28;20047;-52
2021/04/28 02:22:27;;;;;;;25.15;11.38;;;;;;;0.63;63.42;99410.13;5078011;28;20052;-51
2021/04/28 02:24:59;;;;;;;17.88;9.93;;;;;;;0.64;62.52;99411.00;5095070;28;20059;-51
2021/04/28 02:27:53;;;;;;;23.05;11.27;;;;;;;0.60;63.33;99410.09;5084168;28;20359;-52
2021/04/28 02:30:20;;;;;;;21.55;10.07;;;;;;;0.50;64.25;99410.88;5097336;28;20048;-52
2021/04/28 02:32:46;;;;;;;23.75;11.27;;;;;;;0.52;64.00;99403.16;5099505;28;20127;-52
2021/04/28 02:35:24;;;;;;;26.73;12.20;;;;;;;0.44;64.03;99397.94;5099165;28;20448;-52
2021/04/28 02:38:12;;;;;;;30.17;12.32;;;;;;;0.53;63.58;99410.06;5098589;28;20052;-52
2021/04/28 02:41:00;;;;;;;19.15;10.02;;;;;;;0.49;63.62;99413.41;5091875;28;20052;-52
2021/04/28 02:43:26;;;;;;;22.50;10.23;;;;;;;0.51;63.19;99416.88;5081700;28;20055;-52
2021/04/28 02:46:03;;;;;;;20.30;10.48;;;;;;;0.45;63.32;99413.41;5067547;28;20055;-52
2021/04/28 02:48:32;;;;;;;18.23;9.98;;;;;;;0.46;62.83;99412.56;5098309;28;20131;-52
2021/04/28 02:51:20;;;;;;;17.08;9.35;;;;;;;0.44;62.68;99413.41;5098425;28;20044;-51
2021/04/28 02:53:46;;;;;;;18.95;9.75;;;;;;;0.38;63.54;99413.34;5098532;28;20066;-52
2021/04/28 02:56:13;;;;;;;20.42;10.15;;;;;;;0.33;64.06;99410.72;5081502;28;20062;-52
2021/04/28 02:58:39;;;;;;;22.75;9.75;;;;;;;0.32;63.80;99403.81;5081390;28;20056;-51
2021/04/28 03:01:09;;;;;;;19.27;9.93;;;;;;;0.26;64.35;99402.91;5098959;28;20125;-52
2021/04/28 03:03:39;;;;;;;27.73;11.95;;;;;;;0.18;65.01;99395.97;5081138;28;20044;-52
2021/04/28 03:06:10;;;;;;;28.20;12.70;;;;;;;0.22;64.37;99410.59;5081906;28;20391;-51
2021/04/28 03:08:55;;;;;;;20.98;9.93;;;;;;;0.20;64.18;99398.56;5083929;28;20059;-52
2021/04/28 03:11:21;;;;;;;22.52;10.88;;;;;;;0.18;63.86;99402.84;5080910;28;20068;-51
2021/04/28 03:13:47;;;;;;;24.75;12.10;;;;;;;0.11;64.87;99401.91;5098066;28;20044;-52
2021/04/28 03:16:13;;;;;;;24.45;11.68;;;;;;;0.03;65.42;99400.94;5097800;28;20075;-52
2021/04/28 03:18:40;;;;;;;22.50;11.25;;;;;;;0.11;64.46;99395.91;5097797;28;20131;-52
2021/04/28 03:21:07;;;;;;;23.98;12.15;;;;;;;0.07;64.90;99400.16;5063982;28;20345;-52
2021/04/28 03:23:34;;;;;;;24.48;11.68;;;;;;;0.01;64.63;99381.19;5081155;28;20044;-52
2021/04/28 03:26:01;;;;;;;27.20;12.50;;;;;;;0.05;65.27;99393.25;5080882;28;20059;-52
2021/04/28 03:28:27;;;;;;;24.05;11.13;;;;;;;0.09;65.22;99390.72;5080760;28;20048;-51
2021/04/28 03:30:53;;;;;;;21.60;11.00;;;;;;;0.10;65.50;99397.63;5097233;28;20363;-52
2021/04/28 03:33:19;;;;;;;28.58;13.73;;;;;;;0.14;65.30;99388.22;5098366;28;20044;-52
2021/04/28 03:36:02;;;;;;;22.92;12.73;;;;;;;0.13;65.53;99384.78;5098297;28;20036;-52
2021/04/28 03:38:51;;;;;;;30.02;11.80;;;;;;;0.14;65.43;99393.34;5092333;28;20048;-51
2021/04/28 03:41:18;;;;;;;21.63;11.02;;;;;;;0.11;65.52;99390.75;5097103;28;20329;-52
2021/04/28 03:43:45;;;;;;;23.38;11.32;;;;;;;0.17;64.90;99390.81;5097183;28;20081;-52
2021/04/28 03:46:12;;;;;;;22.58;10.45;;;;;;;0.19;64.64;99386.53;5097804;28;20048;-52
2021/04/28 03:48:44;;;;;;;;;;;;;;;0.16;65.47;99389.06;5097683;28;20040;-52
2021/04/28 03:51:11;;;;;;;20.80;11.32;;;;;;;0.14;65.33;99391.63;5096851;28;19924;-52
2021/04/28 03:53:59;;;;;;;20.75;9.77;;;;;;;0.18;64.97;99387.38;5097476;28;20054;-52
2021/04/28 03:56:25;;;;;;;20.90;10.88;;;;;;;0.22;64.71;99391.72;5096702;28;20063;-52
2021/04/28 03:58:52;;;;;;;20.63;10.52;;;;;;;0.28;63.93;99394.34;5097009;28;20127;-51
2021/04/28 04:01:18;;;;;;;21.58;11.32;;;;;;;0.27;65.54;99386.63;5079862;28;20125;-51
2021/04/28 04:03:44;;;;;;;22.92;12.23;;;;;;;0.32;65.52;99383.22;5096810;28;20048;-52
2021/04/28 04:06:39;;;;;;;20.90;10.93;;;;;;;0.39;65.42;99378.97;5084748;28;20048;-52
2021/04/28 04:09:23;;;;;;;23.10;10.45;;;;;;;0.47;64.87;99378.22;5097336;28;20055;-52
2021/04/28 04:11:49;;;;;;;21.27;10.20;;;;;;;0.53;64.45;99374.81;5097260;28;20079;-52
2021/04/28 04:14:20;;;;;;;20.40;9.45;;;;;;;0.61;64.04;99378.31;5096722;28;20142;-52
2021/04/28 04:16:48;;;;;;;19.73;10.75;;;;;;;0.65;64.33;99374.03;5096631;28;20052;-52
2021/04/28 04:19:15;;;;;;;22.17;11.73;;;;;;;0.71;64.80;99379.25;5097438;28;20052;-52
2021/04/28 04:21:52;;;;;;;21.33;11.23;;;;;;;0.77;64.60;99376.72;5095973;28;20060;-52
2021/04/28 04:24:41;;;;;;;19.58;9.93;;;;;;;0.96;64.11;99379.44;5097173;28;20051;-52
2021/04/28 04:27:09;;;;;;;22.35;11.30;;;;;;;1.21;64.42;99378.75;5096471;28;20055;-52
2021/04/28 04:29:50;;;;;;;23.60;12.07;;;;;;;1.63;63.70;99375.50;5096447;28;20052;-52
2021/04/28 04:32:42;;;;;;;20.08;10.82;;;;;;;2.06;62.88;99379.97;5081329;28;20048;-52
2021/04/28 04:35:44;;;;;;;19.08;9.90;;;;;;;2.35;61.95;99377.44;5035124;28;20428;-52
2021/04/28 04:38:29;;;;;;;20.63;10.68;;;;;;;2.56;61.09;99380.00;5092539;28;20048;-52
2021/04/28 04:41:21;;;;;;;20.25;10.05;;;;;;;2.89;60.55;99383.44;5095445;28;20186;-52
2021/04/28 04:44:07;;;;;;;21.00;10.45;;;;;;;3.41;59.31;99390.25;5075800;28;20052;-52
2021/04/28 04:46:55;;;;;;;20.17;10.60;;;;;;;3.94;58.75;99384.03;5096952;28;20120;-52
2021/04/28 04:49:21;;;;;;;26.38;12.20;;;;;;;4.30;57.22;99385.56;5096898;28;20048;-51
2021/04/28 04:51:46;;;;;;;23.73;12.60;;;;;;;4.74;56.65;99384.34;5097022;28;20433;-52
2021/04/28 04:54:12;;;;;;;30.50;13.05;;;;;;;5.26;54.68;99381.28;5096737;28;20047;-52
2021/04/28 04:56:38;;;;;;;30.02;13.95;;;;;;;5.74;52.89;99379.00;5096438;28;20055;-52
2021/04/28 04:59:03;;;;;;;42.47;16.90;;;;;;;5.87;50.97;99387.53;5096732;28;20052;-52
2021/04/28 05:01:29;;;;;;;40.90;15.07;;;;;;;6.49;51.14;99374.56;5096695;28;20364;-52
2021/04/28 05:03:55;;;;;;;43.00;20.15;;;;;;;7.09;50.22;99384.00;5096290;28;20441;-52
2021/04/28 05:06:23;;;;;;;39.13;20.30;;;;;;;7.41;48.40;99381.66;5095752;28;20069;-52
2021/04/28 05:08:49;;;;;;;101.82;54.72;;;;;;;7.61;47.13;99377.81;5096329;28;20059;-52
2021/04/28 05:11:14;;;;;;;420.75;209.13;;;;;;;7.94;47.24;99377.13;5096867;28;20039;-52
2021/04/28 05:13:40;;;;;;;358.55;184.65;;;;;;;8.21;45.82;99374.78;5095644;28;20123;-52
2021/04/28 05:16:06;;;;;;;188.68;101.45;;;;;;;8.61;45.24;99373.91;5095646;28;20055;-52
2021/04/28 05:18:32;;;;;;;65.85;35.72;;;;;;;9.08;44.61;99371.88;5096819;28;20387;-52
2021/04/28 05:20:58;;;;;;;244.00;123.68;;;;;;;9.07;43.08;99375.41;5096099;28;20036;-52
2021/04/28 05:23:23;;;;;;;51.25;26.08;;;;;;;9.50;42.93;99371.63;5095576;28;20040;-52
2021/04/28 05:26:21;;;;;;;30.75;16.52;;;;;;;9.80;42.02;99376.00;5095631;28;20051;-52
2021/04/28 05:28:46;;;;;;;24.98;14.80;;;;;;;9.96;40.72;99372.94;5096627;28;20040;-52
2021/04/28 05:31:12;;;;;;;18.73;11.18;;;;;;;9.75;40.44;99375.28;5096388;28;20044;-52
2021/04/28 05:33:40;;;;;;;20.77;11.48;;;;;;;9.27;41.08;99369.66;5096408;28;20348;-53
2021/04/28 05:36:06;;;;;;;17.42;10.43;;;;;;;9.61;41.26;99369.56;5096336;28;20139;-52
2021/04/28 05:38:32;;;;;;;20.42;11.15;;;;;;;9.51;40.95;99366.34;5096358;28;20048;-52
2021/04/28 05:40:58;;;;;;;18.48;10.60;;;;;;;9.31;40.82;99356.44;5096309;28;20100;-52
2021/04/28 05:43:24;;;;;;;21.95;11.07;;;;;;;9.28;41.56;99369.59;5096541;28;20054;-52
2021/04/28 05:45:50;;;;;;;19.73;10.77;;;;;;;9.60;41.27;99355.63;5096278;28;20147;-52
2021/04/28 05:48:16;;;;;;;20.23;11.02;;;;;;;9.63;41.32;99353.84;5095055;28;20345;-52
2021/04/28 05:50:42;;;;;;;23.08;10.35;;;;;;;9.22;41.59;99353.22;5095684;28;20101;-52
2021/04/28 05:53:08;;;;;;;19.20;9.77;;;;;;;9.08;42.00;99351.81;5095987;28;20456;-52
2021/04/28 05:55:34;;;;;;;17.73;10.43;;;;;;;9.02;42.26;99361.59;5096195;28;20051;-52
2021/04/28 05:58:00;;;;;;;19.92;10.90;;;;;;;9.23;41.85;99368.88;5095935;28;20040;-52
2021/04/28 06:00:26;;;;;;;17.58;10.77;;;;;;;9.46;40.48;99368.25;5095756;28;20052;-52
2021/04/28 06:02:52;;;;;;;18.77;9.93;;;;;;;9.68;40.78;99358.03;5095734;28;20459;-52
2021/04/28 06:05:17;;;;;;;20.50;10.60;;;;;;;10.03;40.49;99357.00;5098347;28;20127;-52
2021/04/28 06:07:43;;;;;;;20.10;10.38;;;;;;;10.01;39.62;99347.50;5100377;28;20115;-52
2021/04/28 06:10:14;;;;;;;21.27;12.32;;;;;;;10.46;39.71;99352.22;5099188;28;20063;-53
2021/04/28 06:12:42;;;;;;;18.25;10.30;;;;;;;10.96;38.91;99358.44;5099899;28;20040;-53
2021/04/28 06:15:09;;;;;;;17.83;10.55;;;;;;;11.46;37.91;99352.34;5099558;28;20089;-53
2021/04/28 06:17:35;;;;;;;18.00;9.85;;;;;;;11.54;37.35;99358.19;5099823;28;20056;-53
2021/04/28 06:20:01;;;;;;;19.80;11.25;;;;;;;12.10;37.18;99357.88;5099728;28;20359;-53
2021/04/28 06:22:26;;;;;;;36.17;19.48;;;;;;;12.04;36.81;99360.72;5099240;28;20444;-53
2021/04/28 06:24:52;;;;;;;28.02;16.27;;;;;;;12.60;36.12;99362.03;5099399;28;20040;-53
2021/04/28 06:27:18;;;;;;;19.50;11.85;;;;;;;12.93;35.66;99357.16;5099661;28;20113;-53
2021/04/28 06:29:44;;;;;;;21.83;12.38;;;;;;;13.25;34.68;99349.72;5099312;28;20043;-53
2021/04/28 06:32:09;;;;;;;20.52;11.50;;;;;;;13.35;34.27;99350.19;5099278;28;20036;-53
2021/04/28 06:34:35;;;;;;;25.35;13.18;;;;;;;13.53;34.38;99352.88;5099226;28;20044;-53
2021/04/28 06:37:01;;;;;;;124.00;50.47;;;;;;;12.76;33.75;99347.38;5099164;28;20046;-53
2021/04/28 06:39:27;;;;;;;72.22;30.67;;;;;;;13.19;33.87;99353.44;5099344;28;20455;-53
2021/04/28 06:41:52;;;;;;;95.82;42.88;;;;;;;13.30;34.03;99356.50;5099087;28;20101;-53
2021/04/28 06:44:18;;;;;;;70.47;33.00;;;;;;;13.82;33.92;99348.09;5098868;28;20046;-53
2021/04/28 06:46:44;;;;;;;22.20;12.57;;;;;;;14.10;32.28;99347.66;5098936;28;20074;-53
2021/04/28 06:49:09;;;;;;;30.27;14.38;;;;;;;14.41;32.35;99349.69;5098440;28;20059;-53
2021/04/28 06:51:35;;;;;;;168.52;61.25;;;;;;;14.40;31.42;99344.50;5098871;28;20044;-53
2021/04/28 06:54:01;;;;;;;86.57;36.90;;;;;;;14.41;32.72;99339.16;5098188;28;20044;-53
2021/04/28 06:56:27;;;;;;;38.00;18.75;;;;;;;14.49;32.16;99344.94;5098231;28;20051;-54
2021/04/28 06:58:53;;;;;;;25.65;13.63;;;;;;;14.91;31.95;99342.91;5099062;28;20044;-53
2021/04/28 07:01:19;;;;;;;26.00;12.82;;;;;;;15.08;31.35;99347.31;5098980;28;20048;-53
2021/04/28 07:03:45;;;;;;;25.40;12.77;;;;;;;15.42;31.15;99335.88;5097777;28;20048;-53
2021/04/28 07:06:11;;;;;;;43.55;20.63;;;;;;;15.70;30.04;99329.19;5098874;28;20364;-52
2021/04/28 07:08:37;;;;;;;36.47;16.85;;;;;;;15.74;29.81;99330.72;5098839;28;20044;-54
2021/04/28 07:11:03;;;;;;;32.28;15.18;;;;;;;15.89;30.14;99330.75;5098767;28;20044;-53
2021/04/28 07:13:29;;;;;;;25.27;13.25;;;;;;;16.05;30.13;99329.91;5097684;28;20048;-54
2021/04/28 07:15:55;;;;;;;20.58;11.07;;;;;;;16.13;29.55;99317.97;5098322;28;20055;-53
2021/04/28 07:18:21;;;;;;;22.25;12.32;;;;;;;16.30;29.21;99319.69;5098650;28;20048;-53
2021/04/28 07:20:47;;;;;;;20.00;12.30;;;;;;;16.01;29.03;99316.00;5098260;28;20124;-53
2021/04/28 07:23:12;;;;;;;21.55;12.15;;;;;;;15.99;29.89;99306.47;5098037;28;20129;-53
2021/04/28 07:25:38;;;;;;;35.20;17.60;;;;;;;16.08;29.53;99313.88;5098382;28;20055;-53
2021/04/28 07:28:04;;;;;;;20.38;11.80;;;;;;;15.57;30.29;99321.91;5098212;28;20054;-53
2021/04/28 07:30:30;;;;;;;17.38;10.70;;;;;;;15.15;30.74;99315.28;5098408;28;20052;-53
2021/04/28 07:32:55;;;;;;;20.73;11.68;;;;;;;15.16;31.14;99318.78;5097284;28;20074;-53
2021/04/28 07:35:21;;;;;;;19.92;11.73;;;;;;;14.89;31.25;99313.97;5098311;28;20059;-53
2021/04/28 07:37:48;;;;;;;16.85;10.73;;;;;;;14.66;32.05;99315.13;5097982;28;20050;-54
2021/04/28 07:40:14;;;;;;;17.08;10.73;;;;;;;14.76;32.14;99315.53;5098261;28;20043;-53
2021/04/28 07:42:41;;;;;;;15.77;11.00;;;;;;;14.72;32.38;99314.84;5097255;28;20123;-53
2021/04/28 07:45:07;;;;;;;19.63;11.75;;;;;;;14.90;32.22;99307.78;5097893;28;20341;-54
2021/04/28 07:47:33;;;;;;;21.25;10.73;;;;;;;15.10;32.16;99313.81;5097205;28;20052;-53
2021/04/28 07:49:59;;;;;;;16.98;11.07;;;;;;;14.75;31.29;99315.59;5098303;28;20401;-53
2021/04/28 07:52:24;;;;;;;16.48;10.55;;;;;;;14.78;32.81;99311.00;5097685;28;20048;-53
2021/04/28 07:54:50;;;;;;;21.25;11.98;;;;;;;15.15;32.66;99307.38;5097922;28;20048;-53
2021/04/28 07:57:16;;;;;;;18.08;10.50;;;;;;;14.93;32.81;99309.41;5097867;28;20418;-53
2021/04/28 07:59:44;;;;;;;17.95;10.82;;;;;;;15.26;32.56;99308.59;5097829;28;20407;-53
2021/04/28 08:02:09;;;;;;;15.82;9.95;;;;;;;15.20;32.42;99307.13;5097745;28;20131;-53
2021/04/28 08:04:38;;;;;;;18.95;10.45;;;;;;;15.41;32.29;99306.03;5097420;28;20430;-53
2021/04/28 08:07:04;;;;;;;21.02;10.98;;;;;;;15.63;32.26;99299.56;5097490;28;20086;-53
2021/04/28 08:09:30;;;;;;;20.02;10.30;;;;;;;15.83;31.61;99302.03;5097976;28;20040;-53
2021/04/28 08:11:56;;;;;;;17.02;9.93;;;;;;;16.34;31.03;99310.63;5097372;28;20051;-53
2021/04/28 08:14:22;;;;;;;21.95;11.18;;;;;;;16.79;30.50;99301.03;5097290;28;20059;-53
2021/04/28 08:16:47;;;;;;;19.15;10.98;;;;;;;16.83;30.08;99299.06;5095839;28;20048;-54
2021/04/28 08:19:13;;;;;;;20.17;10.27;;;;;;;17.35;29.81;99301.22;5095904;28;20055;-53
2021/04/28 08:21:39;;;;;;;17.40;10.80;;;;;;;17.50;29.53;99295.00;5095324;28;20135;-53
2021/04/28 08:24:05;;;;;;;17.80;10.95;;;;;;;17.73;29.06;99298.03;5095210;28;20075;-53
2021/04/28 08:26:30;;;;;;;20.00;10.60;;;;;;;17.89;29.46;99290.00;5094936;28;20079;-53
2021/04/28 08:28:57;;;;;;;17.67;10.85;;;;;;;18.05;28.80;99288.06;5094933;28;20101;-53
2021/04/28 08:31:23;;;;;;;21.25;10.20;;;;;;;18.03;28.87;99289.97;5095618;28;20101;-54
2021/04/28 08:33:49;;;;;;;16.48;10.65;;;;;;;18.04;28.58;99288.19;5097207;28;20048;-53
2021/04/28 08:36:14;;;;;;;16.90;10.93;;;;;;;17.94;28.57;99286.13;5097201;28;20330;-53
2021/04/28 08:38:40;;;;;;;18.05;11.07;;;;;;;18.05;28.91;99282.78;5097101;28;20441;-53
2021/04/28 08:41:07;;;;;;;19.38;11.48;;;;;;;18.01;28.37;99286.56;5096754;28;20129;-53
2021/04/28 08:43:33;;;;;;;20.02;11.27;;;;;;;18.28;29.03;99286.59;5096966;28;20044;-53
2021/04/28 08:46:00;;;;;;;18.48;10.40;;;;;;;18.40;28.43;99295.56;5096997;28;20455;-54
2021/04/28 08:48:27;;;;;;;16.73;10.30;;;;;;;18.44;28.84;99289.94;5096951;28;20071;-53
2021/04/28 08:50:53;;;;;;;16.10;10.43;;;;;;;18.48;29.00;99284.44;5095854;28;20349;-52
2021/04/28 08:53:18;;;;;;;18.15;10.13;;;;;;;18.62;28.60;99285.25;5096620;28;20039;-54
2021/04/28 08:55:44;;;;;;;26.13;10.85;;;;;;;18.68;27.89;99290.09;5096856;28;20048;-54
2021/04/28 08:58:10;;;;;;;18.23;8.82;;;;;;;18.59;28.75;99282.78;5096247;28;20518;-54
2021/04/28 09:00:36;;;;;;;18.55;11.63;;;;;;;18.73;28.36;99291.66;5094839;28;20126;-54
2021/04/28 09:03:02;;;;;;;17.13;10.68;;;;;;;18.83;28.21;99287.44;5095462;28;20372;-54
2021/04/28 09:05:28;;;;;;;16.92;10.52;;;;;;;18.88;28.43;99290.59;5096456;28;20048;-54
2021/04/28 09:07:54;;;;;;;18.67;11.57;;;;;;;18.74;28.25;99272.13;5096178;28;20093;-53
2021/04/28 09:10:22;;;;;;;17.77;10.80;;;;;;;18.77;28.55;99286.03;5096398;28;20052;-53
2021/04/28 09:12:52;;;;;;;19.23;11.52;;;;;;;18.78;28.82;99285.06;5096096;28;20055;-53
2021/04/28 09:15:38;;;;;;;17.58;12.07;;;;;;;18.57;28.69;99271.41;5095826;28;20040;-54
2021/04/28 09:18:06;;;;;;;15.60;10.90;;;;;;;18.28;28.89;99273.34;5096474;28;20055;-53
2021/04/28 09:20:52;;;;;;;22.08;10.45;;;;;;;17.86;29.35;99258.41;5096307;28;20110;-54
2021/04/28 09:23:38;;;;;;;19.23;10.13;;;;;;;17.99;29.40;99264.63;5096120;28;20040;-53
2021/04/28 09:26:22;;;;;;;16.17;10.13;;;;;;;17.68;29.10;99257.75;5096465;28;20131;-54
2021/04/28 09:29:21;;;;;;;14.43;9.68;;;;;;;18.14;29.39;99255.69;5096054;28;20059;-53
2021/04/28 09:31:58;;;;;;;20.77;11.38;;;;;;;18.63;28.63;99255.09;5096127;28;20484;-53
2021/04/28 09:34:28;;;;;;;16.48;9.38;;;;;;;18.78;28.31;99255.03;5096416;28;20044;-54
2021/04/28 09:37:07;;;;;;;22.95;10.77;;;;;;;18.91;27.96;99238.22;5096386;28;20051;-53
2021/04/28 09:39:40;;;;;;;17.83;9.82;;;;;;;19.06;28.78;99236.28;5098180;28;20420;-54
2021/04/28 09:42:06;;;;;;;19.50;11.07;;;;;;;19.08;28.22;99237.06;5100579;28;20046;-53
2021/04/28 09:44:32;;;;;;;17.30;10.18;;;;;;;19.15;27.91;99235.66;5100414;28;20051;-54
2021/04/28 09:47:19;;;;;;;13.77;9.77;;;;;;;19.21;27.52;99231.75;5100439;28;20044;-53
2021/04/28 09:50:17;;;;;;;17.17;10.57;;;;;;;19.38;27.66;99228.75;5100160;28;20348;-52
2021/04/28 09:52:44;;;;;;;14.30;8.93;;;;;;;19.59;26.86;99226.34;5045193;28;20059;-53
2021/04/28 09:55:14;;;;;;;16.30;8.82;;;;;;;19.64;27.12;99218.13;5100046;28;20040;-53
2021/04/28 09:57:41;;;;;;;10.65;7.60;;;;;;;19.59;27.50;99209.56;5099969;28;20040;-53
2021/04/28 10:00:17;;;;;;;15.57;8.60;;;;;;;19.75;27.27;99215.50;5100182;28;20063;-53
2021/04/28 10:02:43;;;;;;;13.48;8.00;;;;;;;19.84;26.87;99214.84;5100068;28;20047;-54
2021/04/28 10:05:18;;;;;;;15.70;8.95;;;;;;;19.97;26.30;99206.84;5065761;28;20088;-53
2021/04/28 10:07:44;;;;;;;13.20;8.43;;;;;;;20.12;26.56;99212.00;5099776;28;20462;-53
2021/04/28 10:10:11;;;;;;;13.55;8.30;;;;;;;20.13;26.47;99208.38;5099652;28;20059;-53
2021/04/28 10:12:36;;;;;;;14.25;7.90;;;;;;;20.10;25.94;99213.91;5099958;28;20052;-53
2021/04/28 10:15:06;;;;;;;11.05;7.40;;;;;;;20.09;25.95;99202.44;5100218;28;20486;-53
2021/04/28 10:17:32;;;;;;;13.45;8.02;;;;;;;20.23;26.17;99199.59;5099871;28;20047;-53
2021/04/28 10:19:58;;;;;;;15.65;9.15;;;;;;;20.39;26.92;99193.13;5098908;28;20082;-53
2021/04/28 10:22:24;;;;;;;13.57;7.30;;;;;;;20.51;25.53;99193.09;5099306;28;20052;-53
2021/04/28 10:24:52;;;;;;;14.13;7.25;;;;;;;20.64;24.39;99192.16;5098828;28;20044;-53
2021/04/28 10:27:18;;;;;;;19.15;9.98;;;;;;;20.45;25.37;99193.53;5099976;28;20055;-54
2021/04/28 10:29:48;;;;;;;14.77;8.68;;;;;;;20.44;25.49;99194.50;5098408;28;20440;-54
2021/04/28 10:32:15;;;;;;;13.02;7.88;;;;;;;20.42;26.51;99182.28;5099580;28;20153;-54
2021/04/28 10:35:00;;;;;;;12.68;8.10;;;;;;;19.87;25.23;99170.44;5099272;28;20348;-54
2021/04/28 10:37:28;;;;;;;10.38;7.43;;;;;;;20.32;26.20;99176.81;5099202;28;20052;-54
2021/04/28 10:39:54;;;;;;;9.60;6.70;;;;;;;20.56;26.19;99160.81;5098593;28;20055;-53
2021/04/28 10:42:35;;;;;;;10.15;6.82;;;;;;;20.81;25.28;99173.09;5081627;28;20040;-53
2021/04/28 10:45:03;;;;;;;12.00;7.32;;;;;;;20.98;25.33;99167.28;5098371;28;20040;-53
2021/04/28 10:47:33;;;;;;;10.70;6.57;;;;;;;21.07;25.84;99172.88;5099308;28;20052;-53
2021/04/28 10:50:08;;;;;;;11.05;6.85;;;;;;;21.22;24.28;99158.34;5098460;28;20101;-53
2021/04/28 10:52:34;;;;;;;11.90;7.43;;;;;;;21.16;24.67;99159.69;5099319;28;20044;-53
2021/04/28 10:55:00;;;;;;;12.77;8.07;;;;;;;21.31;24.50;99170.94;5098807;28;20040;-53
2021/04/28 10:57:36;;;;;;;11.85;7.25;;;;;;;21.31;25.01;99156.75;5099149;28;20097;-53
2021/04/28 11:00:22;;;;;;;11.65;7.72;;;;;;;20.99;25.90;99153.03;5099400;28;20051;-54
2021/04/28 11:02:48;;;;;;;10.25;6.90;;;;;;;21.11;25.37;99153.88;5098565;28;20071;-54
2021/04/28 11:05:26;;;;;;;13.82;6.63;;;;;;;20.97;25.36;99148.78;5098955;28;20048;-53
2021/04/28 11:07:54;;;;;;;10.48;7.50;;;;;;;21.16;24.57;99156.19;5098915;28;20043;-53
2021/04/28 11:10:38;;;;;;;14.50;7.10;;;;;;;21.03;25.28;99150.97;5097679;28;20059;-53
2021/04/28 11:13:16;;;;;;;8.63;6.53;;;;;;;21.13;24.64;99140.44;5098631;28;20044;-53
2021/04/28 11:15:52;;;;;;;10.48;6.90;;;;;;;21.02;24.88;99131.47;5099130;28;20051;-53
2021/04/28 11:18:27;;;;;;;9.95;6.05;;;;;;;20.85;24.39;99136.44;5098673;28;20109;-53
2021/04/28 11:21:18;;;;;;;9.55;5.80;;;;;;;20.70;24.25;99136.69;5098338;28;20440;-53
2021/04/28 11:24:06;;;;;;;17.00;6.25;;;;;;;20.49;24.79;99140.94;5098511;28;20044;-52
2021/04/28 11:26:34;;;;;;;16.65;5.20;;;;;;;20.49;25.49;99140.94;5098372;28;20353;-54
2021/04/28 11:29:00;;;;;;;8.30;5.47;;;;;;;20.73;25.14;99125.78;5098452;28;20058;-53
2021/04/28 11:31:48;;;;;;;8.50;5.78;;;;;;;21.04;25.00;99117.22;5098450;28;20051;-53
2021/04/28 11:34:34;;;;;;;10.20;5.43;;;;;;;21.06;24.91;99120.59;5098378;28;20113;-53
2021/04/28 11:37:02;;;;;;;11.45;5.93;;;;;;;21.07;24.48;99109.00;5098308;28;20052;-53